sensor_id;sensor_type;location;lat;lon;timestamp;temperature;humidity
46932;DHT22;32670;51.464;11.964;2023-05-18T00:01:17;23.40;44.40
46932;DHT22;32670;51.464;11.964;2023-05-18T00:03:42;23.40;44.30
46932;DHT22;32670;51.464;11.964;2023-05-18T00:06:08;23.40;44.30
46932;DHT22;32670;51.464;11.964;2023-05-18T00:08:34;23.40;44.50
46932;DHT22;32670;51.464;11.964;2023-05-18T00:11:01;23.50;44.50
46932;DHT22;32670;51.464;11.964;2023-05-18T00:13:27;23.50;44.50
46932;DHT22;32670;51.464;11.964;2023-05-18T00:15:52;23.50;44.50
46932;DHT22;32670;51.464;11.964;2023-05-18T00:18:18;23.50;44.50
46932;DHT22;32670;51.464;11.964;2023-05-18T00:20:50;23.50;44.60
46932;DHT22;32670;51.464;11.964;2023-05-18T00:23:30;23.50;44.60
46932;DHT22;32670;51.464;11.964;2023-05-18T00:26:01;23.50;44.50
46932;DHT22;32670;51.464;11.964;2023-05-18T00:28:28;23.50;44.50
46932;DHT22;32670;51.464;11.964;2023-05-18T00:30:54;23.50;44.50
46932;DHT22;32670;51.464;11.964;2023-05-18T00:33:20;23.50;44.50
46932;DHT22;32670;51.464;11.964;2023-05-18T00:35:45;23.50;44.50
46932;DHT22;32670;51.464;11.964;2023-05-18T00:38:11;23.50;44.60
46932;DHT22;32670;51.464;11.964;2023-05-18T00:40:38;23.50;44.60
46932;DHT22;32670;51.464;11.964;2023-05-18T00:43:03;23.50;44.60
46932;DHT22;32670;51.464;11.964;2023-05-18T00:45:29;23.50;44.60
46932;DHT22;32670;51.464;11.964;2023-05-18T00:47:55;23.50;44.70
46932;DHT22;32670;51.464;11.964;2023-05-18T00:50:20;23.50;44.70
46932;DHT22;32670;51.464;11.964;2023-05-18T00:52:46;23.50;45.40
46932;DHT22;32670;51.464;11.964;2023-05-18T00:55:12;23.50;44.80
46932;DHT22;32670;51.464;11.964;2023-05-18T00:57:39;23.50;44.80
46932;DHT22;32670;51.464;11.964;2023-05-18T01:00:06;23.50;44.90
46932;DHT22;32670;51.464;11.964;2023-05-18T01:02:35;23.50;44.90
46932;DHT22;32670;51.464;11.964;2023-05-18T01:05:02;23.50;44.70
46932;DHT22;32670;51.464;11.964;2023-05-18T01:07:28;23.50;44.90
46932;DHT22;32670;51.464;11.964;2023-05-18T01:09:57;23.50;45.00
46932;DHT22;32670;51.464;11.964;2023-05-18T01:12:28;23.50;45.00
46932;DHT22;32670;51.464;11.964;2023-05-18T01:15:12;23.50;45.00
46932;DHT22;32670;51.464;11.964;2023-05-18T01:18:10;23.50;45.40
46932;DHT22;32670;51.464;11.964;2023-05-18T01:20:49;23.50;45.20
46932;DHT22;32670;51.464;11.964;2023-05-18T01:26:19;23.50;45.20
46932;DHT22;32670;51.464;11.964;2023-05-18T01:28:50;23.50;45.20
46932;DHT22;32670;51.464;11.964;2023-05-18T01:31:15;23.50;45.20
46932;DHT22;32670;51.464;11.964;2023-05-18T01:33:42;23.50;45.00
46932;DHT22;32670;51.464;11.964;2023-05-18T01:36:08;23.50;45.10
46932;DHT22;32670;51.464;11.964;2023-05-18T01:38:34;23.50;45.20
46932;DHT22;32670;51.464;11.964;2023-05-18T01:41:22;23.50;45.30
46932;DHT22;32670;51.464;11.964;2023-05-18T01:46:52;23.50;45.50
46932;DHT22;32670;51.464;11.964;2023-05-18T01:49:22;23.50;45.50
46932;DHT22;32670;51.464;11.964;2023-05-18T01:51:49;23.50;45.50
46932;DHT22;32670;51.464;11.964;2023-05-18T01:54:18;23.60;45.40
46932;DHT22;32670;51.464;11.964;2023-05-18T01:56:44;23.50;45.30
46932;DHT22;32670;51.464;11.964;2023-05-18T01:59:11;23.50;45.40
46932;DHT22;32670;51.464;11.964;2023-05-18T02:01:37;23.50;45.50
46932;DHT22;32670;51.464;11.964;2023-05-18T02:04:10;23.60;45.70
46932;DHT22;32670;51.464;11.964;2023-05-18T02:06:35;23.60;45.60
46932;DHT22;32670;51.464;11.964;2023-05-18T02:09:03;23.60;45.70
46932;DHT22;32670;51.464;11.964;2023-05-18T02:11:28;23.60;45.60
46932;DHT22;32670;51.464;11.964;2023-05-18T02:13:54;23.60;45.60
46932;DHT22;32670;51.464;11.964;2023-05-18T02:16:20;23.60;45.60
46932;DHT22;32670;51.464;11.964;2023-05-18T02:18:45;23.60;46.20
46932;DHT22;32670;51.464;11.964;2023-05-18T02:21:11;23.60;45.50
46932;DHT22;32670;51.464;11.964;2023-05-18T02:23:38;23.60;45.50
46932;DHT22;32670;51.464;11.964;2023-05-18T02:26:03;23.60;45.50
46932;DHT22;32670;51.464;11.964;2023-05-18T02:28:29;23.60;45.50
46932;DHT22;32670;51.464;11.964;2023-05-18T02:31:04;23.70;45.90
46932;DHT22;32670;51.464;11.964;2023-05-18T02:33:30;23.70;45.70
46932;DHT22;32670;51.464;11.964;2023-05-18T02:36:00;23.70;45.70
46932;DHT22;32670;51.464;11.964;2023-05-18T02:38:27;23.70;45.80
46932;DHT22;32670;51.464;11.964;2023-05-18T02:40:52;23.60;45.80
46932;DHT22;32670;51.464;11.964;2023-05-18T02:43:18;23.70;45.90
46932;DHT22;32670;51.464;11.964;2023-05-18T02:45:43;23.70;45.90
46932;DHT22;32670;51.464;11.964;2023-05-18T02:48:09;23.70;45.90
46932;DHT22;32670;51.464;11.964;2023-05-18T02:50:34;23.70;45.90
46932;DHT22;32670;51.464;11.964;2023-05-18T02:53:00;23.70;45.90
46932;DHT22;32670;51.464;11.964;2023-05-18T02:55:25;23.70;45.80
46932;DHT22;32670;51.464;11.964;2023-05-18T02:57:52;23.70;45.90
46932;DHT22;32670;51.464;11.964;2023-05-18T03:00:21;23.70;45.90
46932;DHT22;32670;51.464;11.964;2023-05-18T03:02:48;23.70;46.00
46932;DHT22;32670;51.464;11.964;2023-05-18T03:05:14;23.70;46.00
46932;DHT22;32670;51.464;11.964;2023-05-18T03:07:40;23.70;46.00
46932;DHT22;32670;51.464;11.964;2023-05-18T03:10:10;23.70;46.20
46932;DHT22;32670;51.464;11.964;2023-05-18T03:12:35;23.70;46.10
46932;DHT22;32670;51.464;11.964;2023-05-18T03:15:01;23.70;46.30
46932;DHT22;32670;51.464;11.964;2023-05-18T03:17:26;23.70;46.50
46932;DHT22;32670;51.464;11.964;2023-05-18T03:19:51;23.70;47.00
46932;DHT22;32670;51.464;11.964;2023-05-18T03:22:17;23.70;46.40
46932;DHT22;32670;51.464;11.964;2023-05-18T03:24:42;23.70;46.40
46932;DHT22;32670;51.464;11.964;2023-05-18T03:27:08;23.70;46.40
46932;DHT22;32670;51.464;11.964;2023-05-18T03:29:34;23.70;46.50
46932;DHT22;32670;51.464;11.964;2023-05-18T03:31:59;23.70;46.40
46932;DHT22;32670;51.464;11.964;2023-05-18T03:34:25;23.70;46.40
46932;DHT22;32670;51.464;11.964;2023-05-18T03:36:50;23.70;46.40
46932;DHT22;32670;51.464;11.964;2023-05-18T03:39:16;23.70;46.40
46932;DHT22;32670;51.464;11.964;2023-05-18T03:41:42;23.70;46.30
46932;DHT22;32670;51.464;11.964;2023-05-18T03:44:07;23.70;46.20
46932;DHT22;32670;51.464;11.964;2023-05-18T03:46:33;23.70;46.20
46932;DHT22;32670;51.464;11.964;2023-05-18T03:48:58;23.70;46.30
46932;DHT22;32670;51.464;11.964;2023-05-18T03:51:24;23.70;46.10
46932;DHT22;32670;51.464;11.964;2023-05-18T03:53:51;23.70;46.00
46932;DHT22;32670;51.464;11.964;2023-05-18T03:56:16;23.70;46.20
46932;DHT22;32670;51.464;11.964;2023-05-18T03:58:42;23.70;46.40
46932;DHT22;32670;51.464;11.964;2023-05-18T04:01:08;23.60;46.50
46932;DHT22;32670;51.464;11.964;2023-05-18T04:03:34;23.70;47.70
46932;DHT22;32670;51.464;11.964;2023-05-18T04:05:59;23.60;47.40
46932;DHT22;32670;51.464;11.964;2023-05-18T04:08:25;23.60;46.70
46932;DHT22;32670;51.464;11.964;2023-05-18T04:10:50;23.60;46.00
46932;DHT22;32670;51.464;11.964;2023-05-18T04:13:16;23.60;45.10
46932;DHT22;32670;51.464;11.964;2023-05-18T04:15:42;23.50;44.40
46932;DHT22;32670;51.464;11.964;2023-05-18T04:18:08;23.50;44.10
46932;DHT22;32670;51.464;11.964;2023-05-18T04:20:34;23.50;44.10
46932;DHT22;32670;51.464;11.964;2023-05-18T04:23:02;23.50;43.90
46932;DHT22;32670;51.464;11.964;2023-05-18T04:25:29;23.50;43.60
46932;DHT22;32670;51.464;11.964;2023-05-18T04:27:55;23.50;43.50
46932;DHT22;32670;51.464;11.964;2023-05-18T04:30:21;23.50;43.40
46932;DHT22;32670;51.464;11.964;2023-05-18T04:32:47;23.50;43.10
46932;DHT22;32670;51.464;11.964;2023-05-18T04:35:13;23.50;40.50
46932;DHT22;32670;51.464;11.964;2023-05-18T04:37:39;23.30;38.00
46932;DHT22;32670;51.464;11.964;2023-05-18T04:40:06;23.00;35.80
46932;DHT22;32670;51.464;11.964;2023-05-18T04:42:32;22.70;35.10
46932;DHT22;32670;51.464;11.964;2023-05-18T04:45:00;22.50;34.50
46932;DHT22;32670;51.464;11.964;2023-05-18T04:47:29;22.30;35.90
46932;DHT22;32670;51.464;11.964;2023-05-18T04:49:55;22.10;35.20
46932;DHT22;32670;51.464;11.964;2023-05-18T04:52:20;21.90;34.10
46932;DHT22;32670;51.464;11.964;2023-05-18T04:54:46;21.80;34.90
46932;DHT22;32670;51.464;11.964;2023-05-18T04:57:12;21.70;34.00
46932;DHT22;32670;51.464;11.964;2023-05-18T04:59:38;21.60;34.20
46932;DHT22;32670;51.464;11.964;2023-05-18T05:02:05;21.50;34.90
46932;DHT22;32670;51.464;11.964;2023-05-18T05:04:31;21.50;34.50
46932;DHT22;32670;51.464;11.964;2023-05-18T05:06:56;21.50;34.60
46932;DHT22;32670;51.464;11.964;2023-05-18T05:09:22;21.50;34.40
46932;DHT22;32670;51.464;11.964;2023-05-18T05:11:47;21.50;34.70
46932;DHT22;32670;51.464;11.964;2023-05-18T05:14:12;21.40;34.20
46932;DHT22;32670;51.464;11.964;2023-05-18T05:16:38;21.40;34.10
46932;DHT22;32670;51.464;11.964;2023-05-18T05:19:03;21.40;34.20
46932;DHT22;32670;51.464;11.964;2023-05-18T05:21:29;21.40;33.90
46932;DHT22;32670;51.464;11.964;2023-05-18T05:23:55;21.30;34.30
46932;DHT22;32670;51.464;11.964;2023-05-18T05:26:21;21.30;34.20
46932;DHT22;32670;51.464;11.964;2023-05-18T05:28:46;21.30;34.10
46932;DHT22;32670;51.464;11.964;2023-05-18T05:31:12;21.20;34.10
46932;DHT22;32670;51.464;11.964;2023-05-18T05:33:38;21.20;34.20
46932;DHT22;32670;51.464;11.964;2023-05-18T05:36:03;21.20;34.20
46932;DHT22;32670;51.464;11.964;2023-05-18T05:38:30;21.20;34.30
46932;DHT22;32670;51.464;11.964;2023-05-18T05:40:56;21.20;34.20
46932;DHT22;32670;51.464;11.964;2023-05-18T05:43:21;21.10;34.50
46932;DHT22;32670;51.464;11.964;2023-05-18T05:45:46;21.10;34.50
46932;DHT22;32670;51.464;11.964;2023-05-18T05:48:12;21.10;34.10
46932;DHT22;32670;51.464;11.964;2023-05-18T05:50:37;21.00;34.90
46932;DHT22;32670;51.464;11.964;2023-05-18T05:53:03;21.10;35.80
46932;DHT22;32670;51.464;11.964;2023-05-18T05:55:28;21.30;35.80
46932;DHT22;32670;51.464;11.964;2023-05-18T05:57:54;21.40;36.00
46932;DHT22;32670;51.464;11.964;2023-05-18T06:00:19;21.50;36.10
46932;DHT22;32670;51.464;11.964;2023-05-18T06:02:45;21.60;36.10
46932;DHT22;32670;51.464;11.964;2023-05-18T06:05:10;21.70;36.20
46932;DHT22;32670;51.464;11.964;2023-05-18T06:07:36;21.70;36.30
46932;DHT22;32670;51.464;11.964;2023-05-18T06:10:02;21.80;36.40
46932;DHT22;32670;51.464;11.964;2023-05-18T06:12:27;21.90;36.50
46932;DHT22;32670;51.464;11.964;2023-05-18T06:14:54;21.90;36.60
46932;DHT22;32670;51.464;11.964;2023-05-18T06:17:26;21.90;36.60
46932;DHT22;32670;51.464;11.964;2023-05-18T06:19:53;22.00;36.80
46932;DHT22;32670;51.464;11.964;2023-05-18T06:22:18;22.00;36.90
46932;DHT22;32670;51.464;11.964;2023-05-18T06:24:44;22.10;36.90
46932;DHT22;32670;51.464;11.964;2023-05-18T06:27:09;22.00;36.90
46932;DHT22;32670;51.464;11.964;2023-05-18T06:29:35;22.10;37.00
46932;DHT22;32670;51.464;11.964;2023-05-18T06:32:01;22.10;37.10
46932;DHT22;32670;51.464;11.964;2023-05-18T06:34:27;22.10;37.20
46932;DHT22;32670;51.464;11.964;2023-05-18T06:36:52;22.20;37.30
46932;DHT22;32670;51.464;11.964;2023-05-18T06:39:17;22.20;37.30
46932;DHT22;32670;51.464;11.964;2023-05-18T06:41:43;22.20;37.40
46932;DHT22;32670;51.464;11.964;2023-05-18T06:44:10;22.20;37.40
46932;DHT22;32670;51.464;11.964;2023-05-18T06:46:36;22.20;37.40
46932;DHT22;32670;51.464;11.964;2023-05-18T06:49:01;22.20;37.50
46932;DHT22;32670;51.464;11.964;2023-05-18T06:51:27;22.30;37.50
46932;DHT22;32670;51.464;11.964;2023-05-18T06:53:52;22.30;38.30
46932;DHT22;32670;51.464;11.964;2023-05-18T06:56:18;22.30;38.10
46932;DHT22;32670;51.464;11.964;2023-05-18T06:58:43;22.30;38.00
46932;DHT22;32670;51.464;11.964;2023-05-18T07:01:09;22.30;38.00
46932;DHT22;32670;51.464;11.964;2023-05-18T07:03:35;22.30;38.00
46932;DHT22;32670;51.464;11.964;2023-05-18T07:06:02;22.30;38.00
46932;DHT22;32670;51.464;11.964;2023-05-18T07:08:28;22.30;38.00
46932;DHT22;32670;51.464;11.964;2023-05-18T07:10:54;22.40;38.10
46932;DHT22;32670;51.464;11.964;2023-05-18T07:13:22;22.40;38.20
46932;DHT22;32670;51.464;11.964;2023-05-18T07:15:48;22.30;38.10
46932;DHT22;32670;51.464;11.964;2023-05-18T07:18:13;22.40;38.20
46932;DHT22;32670;51.464;11.964;2023-05-18T07:20:39;22.40;38.20
46932;DHT22;32670;51.464;11.964;2023-05-18T07:23:04;22.40;38.20
46932;DHT22;32670;51.464;11.964;2023-05-18T07:25:30;22.40;38.50
46932;DHT22;32670;51.464;11.964;2023-05-18T07:27:55;22.40;38.40
46932;DHT22;32670;51.464;11.964;2023-05-18T07:30:21;22.40;38.40
46932;DHT22;32670;51.464;11.964;2023-05-18T07:32:47;22.40;38.40
46932;DHT22;32670;51.464;11.964;2023-05-18T07:35:12;22.40;38.50
46932;DHT22;32670;51.464;11.964;2023-05-18T07:37:38;22.40;38.50
46932;DHT22;32670;51.464;11.964;2023-05-18T07:40:04;22.40;38.50
46932;DHT22;32670;51.464;11.964;2023-05-18T07:42:30;22.50;38.50
46932;DHT22;32670;51.464;11.964;2023-05-18T07:44:58;22.40;38.60
46932;DHT22;32670;51.464;11.964;2023-05-18T07:47:23;22.50;38.60
46932;DHT22;32670;51.464;11.964;2023-05-18T07:49:49;22.40;38.60
46932;DHT22;32670;51.464;11.964;2023-05-18T07:52:14;22.50;38.60
46932;DHT22;32670;51.464;11.964;2023-05-18T07:54:40;22.50;38.70
46932;DHT22;32670;51.464;11.964;2023-05-18T07:57:05;22.50;38.70
46932;DHT22;32670;51.464;11.964;2023-05-18T07:59:31;22.50;38.70
46932;DHT22;32670;51.464;11.964;2023-05-18T08:01:57;22.50;38.70
46932;DHT22;32670;51.464;11.964;2023-05-18T08:04:24;22.50;38.70
46932;DHT22;32670;51.464;11.964;2023-05-18T08:06:49;22.50;38.80
46932;DHT22;32670;51.464;11.964;2023-05-18T08:09:20;22.50;38.80
46932;DHT22;32670;51.464;11.964;2023-05-18T08:11:49;22.50;38.80
46932;DHT22;32670;51.464;11.964;2023-05-18T08:14:15;22.50;39.00
46932;DHT22;32670;51.464;11.964;2023-05-18T08:16:41;22.50;39.40
46932;DHT22;32670;51.464;11.964;2023-05-18T08:19:06;22.50;39.20
46932;DHT22;32670;51.464;11.964;2023-05-18T08:21:32;22.50;39.80
46932;DHT22;32670;51.464;11.964;2023-05-18T08:23:58;22.50;39.10
46932;DHT22;32670;51.464;11.964;2023-05-18T08:26:24;22.50;39.10
46932;DHT22;32670;51.464;11.964;2023-05-18T08:28:51;22.60;39.20
46932;DHT22;32670;51.464;11.964;2023-05-18T08:31:16;22.60;39.10
46932;DHT22;32670;51.464;11.964;2023-05-18T08:33:42;22.60;39.30
46932;DHT22;32670;51.464;11.964;2023-05-18T08:36:08;22.60;39.30
46932;DHT22;32670;51.464;11.964;2023-05-18T08:38:34;22.60;39.20
46932;DHT22;32670;51.464;11.964;2023-05-18T08:44:17;22.60;39.30
46932;DHT22;32670;51.464;11.964;2023-05-18T08:46:45;22.60;39.80
46932;DHT22;32670;51.464;11.964;2023-05-18T08:49:16;22.60;40.00
46932;DHT22;32670;51.464;11.964;2023-05-18T08:51:45;22.70;40.10
46932;DHT22;32670;51.464;11.964;2023-05-18T08:54:16;22.70;40.10
46932;DHT22;32670;51.464;11.964;2023-05-18T08:56:45;22.70;40.20
46932;DHT22;32670;51.464;11.964;2023-05-18T08:59:11;22.70;40.10
46932;DHT22;32670;51.464;11.964;2023-05-18T09:01:38;22.70;40.20
46932;DHT22;32670;51.464;11.964;2023-05-18T09:04:04;22.70;40.20
46932;DHT22;32670;51.464;11.964;2023-05-18T09:06:31;22.80;40.30
46932;DHT22;32670;51.464;11.964;2023-05-18T09:08:58;22.80;40.40
46932;DHT22;32670;51.464;11.964;2023-05-18T09:11:30;22.80;40.70
46932;DHT22;32670;51.464;11.964;2023-05-18T09:13:57;22.80;40.60
46932;DHT22;32670;51.464;11.964;2023-05-18T09:16:22;22.80;40.70
46932;DHT22;32670;51.464;11.964;2023-05-18T09:18:48;22.80;40.70
46932;DHT22;32670;51.464;11.964;2023-05-18T09:21:14;22.80;40.70
46932;DHT22;32670;51.464;11.964;2023-05-18T09:23:40;22.80;40.80
46932;DHT22;32670;51.464;11.964;2023-05-18T09:26:06;22.90;41.40
46932;DHT22;32670;51.464;11.964;2023-05-18T09:28:39;22.80;40.80
46932;DHT22;32670;51.464;11.964;2023-05-18T09:31:06;22.80;40.80
46932;DHT22;32670;51.464;11.964;2023-05-18T09:33:35;22.90;40.90
46932;DHT22;32670;51.464;11.964;2023-05-18T09:36:06;22.90;41.00
46932;DHT22;32670;51.464;11.964;2023-05-18T09:38:40;22.90;41.00
46932;DHT22;32670;51.464;11.964;2023-05-18T09:41:14;22.90;41.00
46932;DHT22;32670;51.464;11.964;2023-05-18T09:43:42;22.90;41.10
46932;DHT22;32670;51.464;11.964;2023-05-18T09:46:11;22.90;41.10
46932;DHT22;32670;51.464;11.964;2023-05-18T09:48:44;22.90;41.10
46932;DHT22;32670;51.464;11.964;2023-05-18T09:51:11;22.90;41.10
46932;DHT22;32670;51.464;11.964;2023-05-18T09:53:46;22.90;41.10
46932;DHT22;32670;51.464;11.964;2023-05-18T09:56:11;23.00;41.90
46932;DHT22;32670;51.464;11.964;2023-05-18T09:58:39;23.00;42.60
46932;DHT22;32670;51.464;11.964;2023-05-18T10:01:05;23.00;43.10
46932;DHT22;32670;51.464;11.964;2023-05-18T10:03:37;23.00;43.20
46932;DHT22;32670;51.464;11.964;2023-05-18T10:06:06;23.00;43.70
46932;DHT22;32670;51.464;11.964;2023-05-18T10:08:33;23.00;43.40
46932;DHT22;32670;51.464;11.964;2023-05-18T10:10:59;23.00;39.80
46932;DHT22;32670;51.464;11.964;2023-05-18T10:13:26;22.80;39.00
46932;DHT22;32670;51.464;11.964;2023-05-18T10:15:55;22.70;38.10
46932;DHT22;32670;51.464;11.964;2023-05-18T10:18:23;22.50;37.00
46932;DHT22;32670;51.464;11.964;2023-05-18T10:20:49;22.40;35.90
46932;DHT22;32670;51.464;11.964;2023-05-18T10:23:17;22.30;35.70
46932;DHT22;32670;51.464;11.964;2023-05-18T10:25:45;22.20;35.70
46932;DHT22;32670;51.464;11.964;2023-05-18T10:28:11;22.10;35.10
46932;DHT22;32670;51.464;11.964;2023-05-18T10:30:39;22.00;33.80
46932;DHT22;32670;51.464;11.964;2023-05-18T10:33:06;21.90;33.30
46932;DHT22;32670;51.464;11.964;2023-05-18T10:35:32;21.80;33.00
46932;DHT22;32670;51.464;11.964;2023-05-18T10:37:58;21.80;33.70
46932;DHT22;32670;51.464;11.964;2023-05-18T10:40:26;21.80;33.90
46932;DHT22;32670;51.464;11.964;2023-05-18T10:42:52;21.80;34.20
46932;DHT22;32670;51.464;11.964;2023-05-18T10:45:20;21.80;34.30
46932;DHT22;32670;51.464;11.964;2023-05-18T10:47:47;21.80;33.90
46932;DHT22;32670;51.464;11.964;2023-05-18T10:50:13;21.80;34.00
46932;DHT22;32670;51.464;11.964;2023-05-18T10:52:41;21.90;34.40
46932;DHT22;32670;51.464;11.964;2023-05-18T10:55:09;21.90;34.40
46932;DHT22;32670;51.464;11.964;2023-05-18T10:57:39;22.00;34.40
46932;DHT22;32670;51.464;11.964;2023-05-18T11:00:08;22.10;34.40
46932;DHT22;32670;51.464;11.964;2023-05-18T11:02:35;22.00;34.60
46932;DHT22;32670;51.464;11.964;2023-05-18T11:05:05;22.10;35.20
46932;DHT22;32670;51.464;11.964;2023-05-18T11:07:30;22.10;34.70
46932;DHT22;32670;51.464;11.964;2023-05-18T11:10:00;22.10;34.60
46932;DHT22;32670;51.464;11.964;2023-05-18T11:12:26;22.10;34.70
46932;DHT22;32670;51.464;11.964;2023-05-18T11:14:53;22.10;34.60
46932;DHT22;32670;51.464;11.964;2023-05-18T11:17:22;22.10;34.60
46932;DHT22;32670;51.464;11.964;2023-05-18T11:22:50;22.20;34.70
46932;DHT22;32670;51.464;11.964;2023-05-18T11:28:02;22.20;34.80
46932;DHT22;32670;51.464;11.964;2023-05-18T11:33:15;22.20;35.00
46932;DHT22;32670;51.464;11.964;2023-05-18T11:35:57;22.20;34.90
46932;DHT22;32670;51.464;11.964;2023-05-18T11:44:04;22.20;34.80
46932;DHT22;32670;51.464;11.964;2023-05-18T11:46:35;22.20;34.60
46932;DHT22;32670;51.464;11.964;2023-05-18T11:49:07;22.30;34.80
46932;DHT22;32670;51.464;11.964;2023-05-18T11:51:34;22.20;34.80
46932;DHT22;32670;51.464;11.964;2023-05-18T11:54:18;22.20;34.80
46932;DHT22;32670;51.464;11.964;2023-05-18T11:56:44;22.20;34.60
46932;DHT22;32670;51.464;11.964;2023-05-18T11:59:11;22.20;34.50
46932;DHT22;32670;51.464;11.964;2023-05-18T12:01:40;22.20;34.70
46932;DHT22;32670;51.464;11.964;2023-05-18T12:04:06;22.20;34.70
46932;DHT22;32670;51.464;11.964;2023-05-18T12:06:32;22.20;34.90
46932;DHT22;32670;51.464;11.964;2023-05-18T12:08:58;22.20;34.60
46932;DHT22;32670;51.464;11.964;2023-05-18T12:11:24;22.20;34.30
46932;DHT22;32670;51.464;11.964;2023-05-18T12:13:51;22.20;34.90
46932;DHT22;32670;51.464;11.964;2023-05-18T12:16:17;22.20;34.40
46932;DHT22;32670;51.464;11.964;2023-05-18T12:18:48;22.20;34.30
46932;DHT22;32670;51.464;11.964;2023-05-18T12:21:18;22.20;34.30
46932;DHT22;32670;51.464;11.964;2023-05-18T12:23:44;22.10;34.30
46932;DHT22;32670;51.464;11.964;2023-05-18T12:26:10;22.20;34.30
46932;DHT22;32670;51.464;11.964;2023-05-18T12:28:35;22.20;34.40
46932;DHT22;32670;51.464;11.964;2023-05-18T12:31:02;22.20;34.40
46932;DHT22;32670;51.464;11.964;2023-05-18T12:33:32;22.10;34.80
46932;DHT22;32670;51.464;11.964;2023-05-18T12:35:58;22.20;34.60
46932;DHT22;32670;51.464;11.964;2023-05-18T12:38:24;22.20;34.60
46932;DHT22;32670;51.464;11.964;2023-05-18T12:40:52;22.20;34.50
46932;DHT22;32670;51.464;11.964;2023-05-18T12:43:18;22.20;34.60
46932;DHT22;32670;51.464;11.964;2023-05-18T12:45:44;22.20;34.20
46932;DHT22;32670;51.464;11.964;2023-05-18T12:48:11;22.20;34.10
46932;DHT22;32670;51.464;11.964;2023-05-18T12:50:45;22.20;34.40
46932;DHT22;32670;51.464;11.964;2023-05-18T12:53:11;22.20;34.40
46932;DHT22;32670;51.464;11.964;2023-05-18T12:55:38;22.20;34.70
46932;DHT22;32670;51.464;11.964;2023-05-18T12:58:11;22.20;34.50
46932;DHT22;32670;51.464;11.964;2023-05-18T13:00:42;22.20;34.50
46932;DHT22;32670;51.464;11.964;2023-05-18T13:03:16;22.20;34.40
46932;DHT22;32670;51.464;11.964;2023-05-18T13:05:44;22.20;34.40
46932;DHT22;32670;51.464;11.964;2023-05-18T13:08:14;22.20;34.40
46932;DHT22;32670;51.464;11.964;2023-05-18T13:10:42;22.20;34.20
46932;DHT22;32670;51.464;11.964;2023-05-18T13:13:08;22.20;34.10
46932;DHT22;32670;51.464;11.964;2023-05-18T13:15:36;22.20;33.90
46932;DHT22;32670;51.464;11.964;2023-05-18T13:18:06;22.20;33.90
46932;DHT22;32670;51.464;11.964;2023-05-18T13:20:39;22.10;33.80
46932;DHT22;32670;51.464;11.964;2023-05-18T13:23:15;22.10;33.50
46932;DHT22;32670;51.464;11.964;2023-05-18T13:25:41;22.10;33.40
46932;DHT22;32670;51.464;11.964;2023-05-18T13:28:08;22.10;33.60
46932;DHT22;32670;51.464;11.964;2023-05-18T13:30:37;22.10;33.70
46932;DHT22;32670;51.464;11.964;2023-05-18T13:33:03;22.10;33.70
46932;DHT22;32670;51.464;11.964;2023-05-18T13:35:29;22.00;33.70
46932;DHT22;32670;51.464;11.964;2023-05-18T13:37:54;22.10;33.80
46932;DHT22;32670;51.464;11.964;2023-05-18T13:40:21;22.10;33.90
46932;DHT22;32670;51.464;11.964;2023-05-18T13:42:48;22.10;33.90
46932;DHT22;32670;51.464;11.964;2023-05-18T13:45:13;22.20;34.00
46932;DHT22;32670;51.464;11.964;2023-05-18T13:47:40;22.20;34.70
46932;DHT22;32670;51.464;11.964;2023-05-18T13:50:08;22.20;34.10
46932;DHT22;32670;51.464;11.964;2023-05-18T13:52:34;22.20;34.10
46932;DHT22;32670;51.464;11.964;2023-05-18T13:55:01;22.20;33.80
46932;DHT22;32670;51.464;11.964;2023-05-18T13:57:26;22.20;33.80
46932;DHT22;32670;51.464;11.964;2023-05-18T13:59:52;22.20;33.90
46932;DHT22;32670;51.464;11.964;2023-05-18T14:02:18;22.20;33.90
46932;DHT22;32670;51.464;11.964;2023-05-18T14:04:43;22.20;34.00
46932;DHT22;32670;51.464;11.964;2023-05-18T14:07:09;22.20;33.70
46932;DHT22;32670;51.464;11.964;2023-05-18T14:09:35;22.20;33.80
46932;DHT22;32670;51.464;11.964;2023-05-18T14:12:01;22.20;34.00
46932;DHT22;32670;51.464;11.964;2023-05-18T14:14:26;22.20;33.70
46932;DHT22;32670;51.464;11.964;2023-05-18T14:16:52;22.20;33.80
46932;DHT22;32670;51.464;11.964;2023-05-18T14:19:18;22.10;33.70
46932;DHT22;32670;51.464;11.964;2023-05-18T14:21:43;22.20;33.80
46932;DHT22;32670;51.464;11.964;2023-05-18T14:24:09;22.20;33.80
46932;DHT22;32670;51.464;11.964;2023-05-18T14:26:35;22.20;33.70
46932;DHT22;32670;51.464;11.964;2023-05-18T14:29:01;22.20;33.80
46932;DHT22;32670;51.464;11.964;2023-05-18T14:31:26;22.20;34.00
46932;DHT22;32670;51.464;11.964;2023-05-18T14:33:51;22.20;34.00
46932;DHT22;32670;51.464;11.964;2023-05-18T14:36:17;22.20;33.70
46932;DHT22;32670;51.464;11.964;2023-05-18T14:38:42;22.20;33.90
46932;DHT22;32670;51.464;11.964;2023-05-18T14:41:10;22.20;33.80
46932;DHT22;32670;51.464;11.964;2023-05-18T14:43:36;22.20;33.80
46932;DHT22;32670;51.464;11.964;2023-05-18T14:46:01;22.20;33.80
46932;DHT22;32670;51.464;11.964;2023-05-18T14:48:28;22.20;33.40
46932;DHT22;32670;51.464;11.964;2023-05-18T14:50:54;22.10;33.20
46932;DHT22;32670;51.464;11.964;2023-05-18T14:53:19;22.10;33.50
46932;DHT22;32670;51.464;11.964;2023-05-18T14:55:45;22.10;33.30
46932;DHT22;32670;51.464;11.964;2023-05-18T14:58:10;22.10;33.30
46932;DHT22;32670;51.464;11.964;2023-05-18T15:00:42;22.10;33.30
46932;DHT22;32670;51.464;11.964;2023-05-18T15:03:08;22.10;33.30
46932;DHT22;32670;51.464;11.964;2023-05-18T15:05:34;22.10;33.30
46932;DHT22;32670;51.464;11.964;2023-05-18T15:07:59;22.20;33.50
46932;DHT22;32670;51.464;11.964;2023-05-18T15:10:25;22.20;33.60
46932;DHT22;32670;51.464;11.964;2023-05-18T15:12:50;22.20;33.60
46932;DHT22;32670;51.464;11.964;2023-05-18T15:15:16;22.20;33.70
46932;DHT22;32670;51.464;11.964;2023-05-18T15:17:41;22.20;34.10
46932;DHT22;32670;51.464;11.964;2023-05-18T15:20:07;22.10;34.00
46932;DHT22;32670;51.464;11.964;2023-05-18T15:22:33;22.20;34.50
46932;DHT22;32670;51.464;11.964;2023-05-18T15:25:01;22.20;34.50
46932;DHT22;32670;51.464;11.964;2023-05-18T15:27:27;22.20;34.20
46932;DHT22;32670;51.464;11.964;2023-05-18T15:29:53;22.30;34.50
46932;DHT22;32670;51.464;11.964;2023-05-18T15:32:18;22.30;34.80
46932;DHT22;32670;51.464;11.964;2023-05-18T15:34:44;22.20;34.30
46932;DHT22;32670;51.464;11.964;2023-05-18T15:37:09;22.30;34.30